Time;durP1;ratioP1;P1;durP2;ratioP2;P2;SDS_P1;SDS_P2;PMS_P1;PMS_P2;Temp;Humidity;BMP_temperature;BMP_pressure;BME280_temperature;BME280_humidity;BME280_pressure;Samples;Min_cycle;Max_cycle;Signal;HPM_P1;HPM_P2
2022/01/16 00:00:57;;;;;;;28.52;9.27;;;7.30;96.10;;;;;;4998064;28;20026;-48
2022/01/16 00:06:07;;;;;;;26.23;8.93;;;7.20;96.00;;;;;;5002563;28;20056;-48
2022/01/16 00:08:33;;;;;;;22.70;7.80;;;7.30;96.10;;;;;;5000653;28;20031;-49
2022/01/16 00:10:59;;;;;;;23.60;7.18;;;7.20;96.00;;;;;;5000410;28;20153;-48
2022/01/16 00:13:25;;;;;;;13.60;6.07;;;7.30;96.10;;;;;;5001633;28;20111;-48
2022/01/16 00:15:51;;;;;;;19.67;7.82;;;7.20;96.00;;;;;;5000690;28;20070;-48
2022/01/16 00:18:23;;;;;;;16.10;6.90;;;7.20;96.00;;;;;;4997789;28;20034;-49
2022/01/16 00:20:49;;;;;;;24.85;8.85;;;7.20;96.00;;;;;;5000270;28;20453;-48
2022/01/16 00:23:23;;;;;;;24.27;8.75;;;7.20;96.10;;;;;;4998782;28;20114;-48
2022/01/16 00:25:53;;;;;;;27.40;8.65;;;7.20;96.00;;;;;;5000684;28;20328;-48
2022/01/16 00:28:19;;;;;;;26.38;8.20;;;7.20;96.00;;;;;;5002869;28;20030;-48
2022/01/16 00:30:45;;;;;;;21.33;7.00;;;7.20;96.00;;;;;;5000069;28;20027;-48
2022/01/16 00:33:10;;;;;;;20.05;6.78;;;7.20;96.00;;;;;;4999052;28;20501;-49
2022/01/16 00:35:37;;;;;;;19.35;6.78;;;7.20;96.00;;;;;;5001849;28;20030;-49
2022/01/16 00:38:03;;;;;;;31.27;10.63;;;7.20;96.00;;;;;;5001145;28;20038;-49
2022/01/16 00:40:29;;;;;;;25.55;10.05;;;7.20;96.00;;;;;;4998258;28;20026;-48
2022/01/16 00:42:57;;;;;;;18.20;7.05;;;7.20;95.90;;;;;;5001319;28;20112;-48
2022/01/16 00:45:26;;;;;;;32.25;7.65;;;7.20;95.90;;;;;;5000244;28;20084;-48
2022/01/16 00:47:52;;;;;;;29.02;9.13;;;7.20;95.90;;;;;;4999292;28;20044;-48
2022/01/16 00:50:18;;;;;;;18.08;6.30;;;7.20;96.00;;;;;;5004067;28;20038;-48
2022/01/16 00:52:44;;;;;;;23.50;5.97;;;7.20;96.00;;;;;;4997571;28;20061;-48
2022/01/16 00:55:10;;;;;;;23.33;8.05;;;7.20;96.00;;;;;;4999012;28;20058;-48
2022/01/16 00:57:35;;;;;;;16.70;5.88;;;7.20;96.00;;;;;;5000143;28;20369;-49
2022/01/16 01:00:02;;;;;;;16.63;5.00;;;7.20;95.90;;;;;;4998617;28;20030;-48
2022/01/16 01:02:28;;;;;;;23.73;9.45;;;7.20;95.90;;;;;;5004810;28;20034;-48
2022/01/16 01:04:53;;;;;;;23.23;7.07;;;7.20;95.80;;;;;;5004617;28;20030;-48
2022/01/16 01:07:19;;;;;;;28.38;7.85;;;7.20;95.90;;;;;;5002416;28;20026;-49
2022/01/16 01:09:45;;;;;;;17.27;6.57;;;7.20;95.90;;;;;;5004632;28;20060;-48
2022/01/16 01:12:20;;;;;;;17.23;6.05;;;7.20;95.80;;;;;;5001857;28;20030;-48
2022/01/16 01:15:04;;;;;;;27.23;7.85;;;7.20;95.80;;;;;;5003621;28;20099;-48
2022/01/16 01:17:34;;;;;;;7.88;3.47;;;7.20;95.90;;;;;;5001839;28;20465;-48
2022/01/16 01:20:00;;;;;;;19.25;8.63;;;7.20;95.90;;;;;;5005407;28;20061;-48
2022/01/16 01:22:26;;;;;;;28.05;7.40;;;7.20;95.80;;;;;;5002092;28;20030;-48
2022/01/16 01:24:51;;;;;;;26.25;9.02;;;7.20;95.80;;;;;;5002875;28;20109;-48
2022/01/16 01:27:23;;;;;;;9.95;4.45;;;7.20;95.90;;;;;;5004292;28;20088;-48
2022/01/16 01:29:59;;;;;;;18.92;5.97;;;7.20;95.80;;;;;;5005253;28;20027;-48
2022/01/16 01:32:25;;;;;;;28.60;10.15;;;7.20;95.70;;;;;;5001545;28;20034;-49
2022/01/16 01:34:50;;;;;;;17.67;7.65;;;7.20;95.80;;;;;;5002755;28;20037;-48
2022/01/16 01:37:16;;;;;;;27.00;8.68;;;7.20;95.80;;;;;;5004263;28;20494;-48
2022/01/16 01:39:42;;;;;;;17.00;5.85;;;7.20;95.90;;;;;;5001012;28;20034;-48
2022/01/16 01:42:10;;;;;;;30.27;9.93;;;7.20;95.80;;;;;;5000270;28;20102;-48
2022/01/16 01:52:54;;;;;;;21.77;8.52;;;7.20;95.90;;;;;;5002560;28;20049;-48
2022/01/16 01:55:21;;;;;;;5.72;2.95;;;7.20;95.90;;;;;;5001361;28;20022;-48
2022/01/16 01:57:46;;;;;;;22.75;8.10;;;7.20;95.80;;;;;;5003678;28;20046;-48
2022/01/16 02:00:17;;;;;;;31.75;9.75;;;7.20;95.90;;;;;;5002902;28;20111;-49
2022/01/16 02:05:19;;;;;;;31.52;10.57;;;7.20;95.90;;;;;;5001585;28;20031;-48
2022/01/16 02:07:45;;;;;;;26.50;10.27;;;7.20;95.90;;;;;;5003783;28;20045;-48
2022/01/16 02:10:11;;;;;;;32.05;10.52;;;7.20;95.90;;;;;;5002872;28;20484;-48
2022/01/16 02:12:41;;;;;;;29.02;9.85;;;7.20;95.90;;;;;;5001923;28;20058;-48
2022/01/16 02:15:32;;;;;;;29.58;7.43;;;7.20;95.90;;;;;;5002708;28;20030;-49
2022/01/16 02:29:31;;;;;;;30.27;10.38;;;7.20;95.90;;;;;;5005288;28;20092;-49
2022/01/16 02:31:45;;;;;;;30.40;8.30;;;7.20;95.90;;;;;;4999666;28;20034;-48
2022/01/16 02:36:59;;;;;;;32.85;10.30;;;7.20;96.20;;;;;;5003328;28;20037;-48
2022/01/16 02:39:26;;;;;;;22.27;7.50;;;7.20;95.90;;;;;;5000022;28;20042;-48
2022/01/16 02:41:54;;;;;;;12.95;5.68;;;7.20;95.90;;;;;;5003651;28;20117;-48
2022/01/16 02:44:29;;;;;;;25.65;9.07;;;7.20;95.80;;;;;;5000600;28;20461;-48
2022/01/16 02:46:56;;;;;;;19.95;8.13;;;7.20;95.80;;;;;;5000986;28;20361;-48
2022/01/16 02:49:27;;;;;;;26.77;9.75;;;7.20;95.90;;;;;;5000824;28;20223;-48
2022/01/16 02:51:56;;;;;;;15.23;7.10;;;7.20;95.90;;;;;;5000884;28;20077;-48
2022/01/16 02:54:23;;;;;;;3.50;2.80;;;7.20;95.90;;;;;;5003062;28;20403;-48
2022/01/16 02:56:50;;;;;;;20.05;7.53;;;7.20;96.00;;;;;;5001171;28;20061;-48
2022/01/16 02:59:17;;;;;;;29.60;8.82;;;7.20;95.90;;;;;;5000096;28;20343;-48
2022/01/16 03:01:45;;;;;;;27.05;10.50;;;7.20;95.80;;;;;;4998782;28;20030;-48
2022/01/16 03:04:11;;;;;;;21.77;8.77;;;7.20;95.90;;;;;;5003030;28;20056;-48
2022/01/16 03:06:37;;;;;;;20.67;8.88;;;7.10;95.80;;;;;;5000105;28;20441;-48
2022/01/16 03:09:08;;;;;;;27.25;11.30;;;7.10;95.80;;;;;;5001509;28;20037;-48
2022/01/16 03:11:42;;;;;;;27.35;9.50;;;7.20;95.80;;;;;;5002711;28;20484;-48
2022/01/16 03:14:13;;;;;;;20.55;8.10;;;7.20;95.90;;;;;;5000638;28;20031;-48
2022/01/16 03:16:45;;;;;;;23.38;10.48;;;7.20;95.90;;;;;;5000849;28;20033;-50
2022/01/16 03:21:57;;;;;;;34.65;11.75;;;7.20;96.00;;;;;;5002771;28;20038;-49
2022/01/16 03:24:27;;;;;;;26.45;9.30;;;7.20;95.90;;;;;;5001469;28;20149;-48
2022/01/16 03:27:05;;;;;;;21.73;7.80;;;7.10;95.90;;;;;;5002204;28;20032;-48
2022/01/16 03:29:30;;;;;;;31.27;11.52;;;7.20;95.90;;;;;;5000801;28;20034;-49
2022/01/16 03:31:57;;;;;;;21.20;7.22;;;7.20;95.90;;;;;;5001919;28;20046;-48
2022/01/16 03:34:23;;;;;;;23.08;7.90;;;7.20;95.90;;;;;;5000786;28;20030;-48
2022/01/16 03:36:49;;;;;;;24.80;9.13;;;7.20;95.90;;;;;;5000476;28;20026;-49
2022/01/16 03:39:15;;;;;;;30.83;10.25;;;7.10;95.90;;;;;;4999389;28;20038;-48
2022/01/16 03:41:41;;;;;;;27.63;9.15;;;7.20;96.00;;;;;;4999859;28;20061;-48
2022/01/16 03:44:07;;;;;;;32.67;11.20;;;7.20;96.00;;;;;;5002539;28;20490;-48
2022/01/16 03:46:38;;;;;;;32.53;10.90;;;7.20;96.00;;;;;;5000861;28;20027;-49
2022/01/16 03:49:13;;;;;;;27.25;11.15;;;7.20;96.00;;;;;;5001082;28;20030;-48
2022/01/16 03:51:41;;;;;;;35.03;11.80;;;7.20;96.00;;;;;;5000446;28;20346;-48
2022/01/16 03:54:10;;;;;;;30.90;11.73;;;7.20;96.00;;;;;;4999532;28;20019;-49
2022/01/16 03:56:35;;;;;;;28.27;11.27;;;7.20;96.00;;;;;;5001314;28;20034;-48
2022/01/16 03:59:02;;;;;;;28.52;11.05;;;7.20;96.00;;;;;;5000962;28;20030;-48
2022/01/16 04:01:27;;;;;;;30.52;11.23;;;7.20;96.00;;;;;;4998398;28;20032;-49
2022/01/16 04:03:54;;;;;;;27.52;10.55;;;7.20;96.00;;;;;;5001366;28;20034;-48
2022/01/16 04:06:20;;;;;;;19.65;9.27;;;7.20;96.00;;;;;;4998533;28;20110;-48
2022/01/16 04:08:50;;;;;;;18.00;7.57;;;7.20;96.00;;;;;;5003119;28;20101;-48
2022/01/16 04:11:17;;;;;;;20.40;8.88;;;7.20;96.00;;;;;;5002631;28;20033;-48
2022/01/16 04:13:50;;;;;;;17.50;6.25;;;7.20;96.00;;;;;;4999564;28;20079;-49
2022/01/16 04:16:16;;;;;;;24.75;9.95;;;7.20;95.90;;;;;;4999902;28;20092;-49
2022/01/16 04:18:42;;;;;;;23.83;8.82;;;7.20;95.90;;;;;;4999379;28;20066;-49
2022/01/16 04:21:08;;;;;;;28.60;9.95;;;7.10;95.90;;;;;;5003171;28;20069;-49
2022/01/16 04:23:33;;;;;;;27.50;9.98;;;7.10;96.00;;;;;;5001328;28;20114;-49
2022/01/16 04:25:59;;;;;;;28.60;9.85;;;7.10;95.90;;;;;;4999623;28;20030;-49
2022/01/16 04:28:25;;;;;;;26.73;11.10;;;7.10;96.00;;;;;;4999949;28;20026;-49
2022/01/16 04:30:51;;;;;;;29.83;8.55;;;7.10;95.90;;;;;;5005276;28;20022;-48
2022/01/16 04:33:17;;;;;;;22.30;8.73;;;7.10;96.00;;;;;;4997697;28;20058;-49
2022/01/16 04:35:43;;;;;;;20.45;6.97;;;7.10;95.90;;;;;;5003149;28;20113;-48
2022/01/16 04:38:09;;;;;;;34.05;12.23;;;7.20;96.00;;;;;;5003006;28;20133;-49
2022/01/16 04:40:43;;;;;;;18.67;8.55;;;7.10;95.90;;;;;;5005685;28;20018;-49
2022/01/16 04:45:57;;;;;;;37.00;12.70;;;7.20;96.00;;;;;;5003718;28;20529;-48
2022/01/16 04:48:23;;;;;;;24.25;9.07;;;7.20;95.90;;;;;;5003626;28;20033;-48
2022/01/16 04:50:48;;;;;;;9.45;3.38;;;7.10;95.90;;;;;;5001972;28;20026;-48
2022/01/16 04:53:14;;;;;;;25.55;8.30;;;7.10;95.90;;;;;;5007734;28;20034;-48
2022/01/16 04:55:39;;;;;;;21.35;9.00;;;7.10;95.90;;;;;;5004533;28;20076;-48
2022/01/16 04:58:05;;;;;;;18.92;7.80;;;7.10;96.00;;;;;;5003038;28;20038;-48
2022/01/16 05:00:31;;;;;;;24.60;10.40;;;7.10;95.90;;;;;;5003969;28;20026;-48
2022/01/16 05:02:56;;;;;;;19.45;8.63;;;7.10;95.90;;;;;;5000401;28;20038;-48
2022/01/16 05:05:22;;;;;;;18.10;7.97;;;7.10;95.80;;;;;;5004914;28;20495;-48
2022/01/16 05:07:47;;;;;;;19.45;6.25;;;7.10;95.80;;;;;;5003723;28;20026;-48
2022/01/16 05:10:13;;;;;;;12.23;5.70;;;7.10;95.90;;;;;;5002146;28;20037;-48
2022/01/16 05:12:42;;;;;;;26.30;7.63;;;7.10;95.90;;;;;;5004992;28;20358;-49
2022/01/16 05:17:52;;;;;;;28.10;9.65;;;7.10;95.80;;;;;;5004492;28;20037;-48
2022/01/16 05:20:18;;;;;;;8.95;3.67;;;7.10;95.90;;;;;;5001207;28;20357;-48
2022/01/16 05:22:44;;;;;;;21.00;6.70;;;7.10;95.90;;;;;;5002978;28;20030;-48
2022/01/16 05:25:13;;;;;;;24.02;11.48;;;7.10;95.90;;;;;;5000990;28;20464;-48
2022/01/16 05:27:39;;;;;;;22.60;9.52;;;7.10;95.90;;;;;;5002623;28;20042;-48
2022/01/16 05:30:05;;;;;;;25.25;10.13;;;7.10;95.90;;;;;;5003468;28;20030;-49
2022/01/16 05:32:31;;;;;;;31.38;10.65;;;7.10;95.90;;;;;;5003994;28;20049;-48
2022/01/16 05:34:57;;;;;;;30.83;12.23;;;7.10;95.90;;;;;;5001132;28;20428;-48
2022/01/16 05:37:22;;;;;;;34.85;13.65;;;7.10;95.90;;;;;;5000634;28;20084;-48
2022/01/16 05:39:49;;;;;;;31.70;11.88;;;7.10;95.90;;;;;;5004637;28;20071;-49
2022/01/16 05:42:15;;;;;;;22.42;8.60;;;7.20;96.00;;;;;;5003709;28;20071;-48
2022/01/16 05:44:41;;;;;;;23.77;8.75;;;7.10;95.90;;;;;;5001714;28;20456;-49
2022/01/16 05:47:06;;;;;;;26.80;10.75;;;7.10;95.90;;;;;;5003992;28;20076;-48
2022/01/16 05:49:32;;;;;;;31.10;11.25;;;7.10;95.90;;;;;;5002984;28;20030;-48
2022/01/16 05:51:58;;;;;;;29.15;10.35;;;7.10;95.90;;;;;;5005684;28;20068;-48
2022/01/16 05:54:24;;;;;;;24.27;9.73;;;7.10;95.90;;;;;;5010648;28;20425;-49
2022/01/16 05:56:49;;;;;;;36.10;12.27;;;7.10;95.80;;;;;;5010560;28;20030;-48
2022/01/16 05:59:15;;;;;;;30.00;10.73;;;7.10;95.90;;;;;;5010285;28;20444;-48
2022/01/16 06:01:41;;;;;;;36.63;13.63;;;7.10;95.90;;;;;;5008431;28;20065;-48
2022/01/16 06:04:06;;;;;;;35.35;12.23;;;7.10;95.90;;;;;;5007982;28;20052;-49
2022/01/16 06:06:32;;;;;;;28.77;10.82;;;7.10;95.90;;;;;;5007200;28;20030;-49
2022/01/16 06:08:57;;;;;;;33.33;12.88;;;7.10;95.90;;;;;;5010169;28;20022;-48
2022/01/16 06:11:23;;;;;;;28.25;10.02;;;7.10;95.90;;;;;;5009439;28;20026;-48
2022/01/16 06:13:49;;;;;;;22.90;10.20;;;7.10;95.90;;;;;;5009252;28;20374;-48
2022/01/16 06:16:15;;;;;;;31.65;10.63;;;7.10;95.90;;;;;;5010333;28;20041;-49
2022/01/16 06:18:40;;;;;;;22.23;7.65;;;7.10;95.80;;;;;;5009333;28;20030;-48
2022/01/16 06:21:06;;;;;;;33.58;11.27;;;7.10;95.80;;;;;;5006083;28;20030;-48
2022/01/16 06:23:31;;;;;;;28.08;11.13;;;7.10;95.90;;;;;;5003748;28;20106;-48
2022/01/16 06:25:57;;;;;;;23.60;8.68;;;7.10;95.80;;;;;;5004496;28;20029;-48
2022/01/16 06:28:24;;;;;;;19.90;7.18;;;7.10;95.80;;;;;;5001451;28;20489;-48
2022/01/16 06:30:50;;;;;;;19.92;9.52;;;7.10;95.90;;;;;;5001860;28;20023;-49
2022/01/16 06:33:16;;;;;;;39.70;14.07;;;7.10;95.80;;;;;;5002493;28;20034;-48
2022/01/16 06:35:42;;;;;;;37.70;12.57;;;7.10;95.80;;;;;;5001379;28;20490;-48
2022/01/16 06:38:08;;;;;;;34.22;12.35;;;7.10;95.80;;;;;;5002297;28;20042;-48
2022/01/16 06:40:33;;;;;;;14.70;5.85;;;7.10;96.00;;;;;;4999770;28;20129;-48
2022/01/16 06:42:59;;;;;;;36.00;11.18;;;7.10;95.80;;;;;;5001118;28;20385;-49
2022/01/16 06:45:25;;;;;;;35.33;13.02;;;7.10;95.80;;;;;;5004146;28;20033;-48
2022/01/16 06:47:51;;;;;;;33.08;10.35;;;7.10;95.90;;;;;;5000688;28;20608;-48
2022/01/16 06:50:18;;;;;;;32.50;13.23;;;7.10;95.90;;;;;;5000788;28;20037;-48
2022/01/16 06:52:43;;;;;;;32.40;13.02;;;7.10;95.90;;;;;;4999656;28;20042;-48
2022/01/16 06:55:10;;;;;;;27.80;11.95;;;7.10;95.80;;;;;;4999992;28;20045;-48
2022/01/16 06:57:35;;;;;;;45.75;14.32;;;7.10;95.80;;;;;;5000127;28;20033;-48
2022/01/16 07:00:11;;;;;;;44.70;13.85;;;7.10;95.80;;;;;;5003243;28;20026;-49
2022/01/16 07:02:37;;;;;;;39.35;15.00;;;7.10;95.90;;;;;;5000162;28;20034;-49
2022/01/16 07:05:04;;;;;;;25.30;9.95;;;7.10;95.90;;;;;;5001231;28;20386;-48
2022/01/16 07:07:30;;;;;;;38.05;15.07;;;7.10;95.90;;;;;;5004147;28;20044;-48
2022/01/16 07:09:56;;;;;;;41.63;15.65;;;7.10;95.90;;;;;;5009528;28;20293;-48
2022/01/16 07:12:21;;;;;;;26.27;10.73;;;7.10;95.90;;;;;;5008245;28;20344;-48
2022/01/16 07:14:48;;;;;;;12.68;3.63;;;7.10;95.90;;;;;;5009531;28;20054;-49
2022/01/16 07:17:13;;;;;;;17.80;8.15;;;7.10;95.80;;;;;;5009899;28;20088;-48
2022/01/16 07:19:39;;;;;;;29.13;10.93;;;7.10;95.80;;;;;;5007488;28;20038;-48
2022/01/16 07:22:05;;;;;;;34.97;13.20;;;7.10;95.90;;;;;;4997155;28;20042;-48
2022/01/16 07:24:31;;;;;;;21.80;9.43;;;7.10;95.90;;;;;;5002898;28;20052;-48
2022/01/16 07:27:00;;;;;;;26.08;7.43;;;7.10;95.90;;;;;;5001459;28;20446;-48
2022/01/16 07:29:28;;;;;;;27.92;10.45;;;7.10;95.90;;;;;;5003597;28;20408;-48
2022/01/16 07:31:54;;;;;;;20.48;6.78;;;7.10;95.80;;;;;;5007601;28;20022;-48
2022/01/16 07:34:20;;;;;;;10.10;5.43;;;7.10;95.90;;;;;;5008774;28;20030;-48
2022/01/16 07:36:46;;;;;;;32.45;12.00;;;7.20;95.80;;;;;;5006473;28;20069;-48
2022/01/16 07:39:11;;;;;;;23.67;8.98;;;7.10;95.80;;;;;;5009702;28;20038;-49
2022/01/16 07:41:37;;;;;;;34.60;13.55;;;7.10;95.90;;;;;;5008991;28;20349;-48
2022/01/16 07:44:03;;;;;;;37.83;14.00;;;7.10;95.90;;;;;;5006034;28;20037;-48
2022/01/16 07:46:29;;;;;;;42.33;13.52;;;7.10;95.90;;;;;;4998852;28;20022;-48
2022/01/16 07:48:55;;;;;;;45.45;14.63;;;7.20;95.90;;;;;;5003800;28;20025;-48
2022/01/16 07:51:21;;;;;;;37.25;15.80;;;7.10;95.90;;;;;;5007589;28;20030;-49
2022/01/16 07:53:47;;;;;;;22.10;7.97;;;7.10;95.80;;;;;;5006763;28;20029;-48
2022/01/16 07:56:13;;;;;;;26.17;12.30;;;7.10;95.80;;;;;;5010204;28;20034;-49
2022/01/16 07:58:38;;;;;;;11.25;5.38;;;7.10;95.60;;;;;;5010155;28;20445;-49
2022/01/16 08:01:05;;;;;;;33.33;11.80;;;7.10;95.50;;;;;;5010203;28;20022;-48
2022/01/16 08:03:30;;;;;;;35.58;13.20;;;7.10;95.60;;;;;;5007405;28;20396;-49
2022/01/16 08:05:56;;;;;;;44.13;13.45;;;7.10;95.60;;;;;;5004938;28;20080;-48
2022/01/16 08:08:22;;;;;;;37.50;14.55;;;7.10;95.60;;;;;;5010132;28;20484;-49
2022/01/16 08:10:47;;;;;;;38.78;13.05;;;7.20;95.60;;;;;;5014380;28;20022;-48
2022/01/16 08:13:13;;;;;;;24.55;10.43;;;7.10;95.60;;;;;;5013429;28;20053;-49
2022/01/16 08:15:39;;;;;;;29.45;11.70;;;7.10;95.60;;;;;;5013017;28;20034;-48
2022/01/16 08:18:05;;;;;;;35.28;13.57;;;7.10;95.60;;;;;;5013764;28;20036;-48
2022/01/16 08:20:30;;;;;;;36.60;13.80;;;7.10;95.60;;;;;;5011581;28;20030;-49
2022/01/16 08:22:56;;;;;;;20.20;9.07;;;7.10;95.60;;;;;;5012840;28;20068;-48
2022/01/16 08:25:24;;;;;;;21.35;8.40;;;7.20;95.60;;;;;;5008823;28;20026;-49
2022/01/16 08:27:49;;;;;;;26.52;10.90;;;7.10;95.60;;;;;;5005773;28;20120;-49
2022/01/16 08:30:16;;;;;;;31.55;11.82;;;7.20;95.60;;;;;;5007743;28;20105;-49
2022/01/16 08:32:44;;;;;;;26.70;10.55;;;7.10;95.60;;;;;;5003309;28;20096;-49
2022/01/16 08:35:12;;;;;;;43.13;14.77;;;7.10;95.60;;;;;;5013771;28;20420;-48
2022/01/16 08:37:37;;;;;;;30.48;8.15;;;7.20;95.60;;;;;;5007364;28;20036;-48
2022/01/16 08:40:04;;;;;;;26.20;11.38;;;7.10;95.60;;;;;;5012413;28;20117;-49
2022/01/16 08:42:30;;;;;;;37.40;14.35;;;7.10;95.70;;;;;;5012062;28;20026;-48
2022/01/16 08:44:55;;;;;;;25.67;10.07;;;7.20;95.70;;;;;;5013324;28;20044;-49
2022/01/16 08:47:21;;;;;;;24.08;9.77;;;7.20;95.70;;;;;;5010273;28;20029;-49
2022/01/16 08:49:47;;;;;;;27.60;9.35;;;7.20;95.70;;;;;;5013280;28;20476;-49
2022/01/16 08:52:13;;;;;;;32.13;12.52;;;7.20;96.00;;;;;;5010826;28;20029;-48
2022/01/16 08:54:39;;;;;;;31.27;12.77;;;7.20;95.70;;;;;;5007565;28;20124;-48
2022/01/16 08:57:05;;;;;;;28.23;11.80;;;7.20;95.70;;;;;;5004342;28;20105;-49
2022/01/16 08:59:31;;;;;;;35.90;14.45;;;7.20;95.80;;;;;;5001727;28;20127;-48
2022/01/16 09:01:56;;;;;;;32.90;13.48;;;7.20;95.70;;;;;;5002062;28;20038;-49
2022/01/16 09:04:22;;;;;;;27.52;10.27;;;7.20;95.80;;;;;;5004476;28;20079;-49
2022/01/16 09:06:48;;;;;;;23.75;8.55;;;7.20;95.80;;;;;;5005957;28;20488;-49
2022/01/16 09:09:13;;;;;;;29.45;11.30;;;7.20;95.70;;;;;;5009350;28;20030;-48
2022/01/16 09:11:39;;;;;;;30.65;12.30;;;7.20;95.70;;;;;;5007534;28;20038;-49
2022/01/16 09:14:05;;;;;;;30.67;9.10;;;7.20;95.70;;;;;;5005064;28;20030;-49
2022/01/16 09:16:31;;;;;;;17.48;5.40;;;7.20;95.80;;;;;;5006945;28;20036;-48
2022/01/16 09:18:56;;;;;;;29.33;11.02;;;7.20;95.70;;;;;;5002358;28;20033;-49
2022/01/16 09:21:22;;;;;;;37.13;13.63;;;7.20;95.60;;;;;;5002999;28;20455;-49
2022/01/16 09:23:50;;;;;;;33.55;11.35;;;7.20;95.10;;;;;;5013006;28;20595;-49
2022/01/16 09:26:17;;;;;;;3.95;3.00;;;7.20;94.10;;;;;;5012192;28;20037;-49
2022/01/16 09:28:44;;;;;;;27.30;12.10;;;7.10;93.70;;;;;;5011387;28;20451;-49
2022/01/16 09:31:10;;;;;;;20.48;9.35;;;7.10;93.30;;;;;;5010727;28;20254;-48
2022/01/16 09:33:36;;;;;;;23.70;10.32;;;7.10;92.80;;;;;;5011992;28;20120;-49
2022/01/16 09:36:04;;;;;;;15.27;7.07;;;7.10;92.50;;;;;;5011405;28;20026;-49
2022/01/16 09:38:30;;;;;;;15.07;5.85;;;7.10;92.20;;;;;;5010661;28;20480;-48
2022/01/16 09:40:56;;;;;;;29.88;12.07;;;7.00;92.00;;;;;;5011741;28;20070;-49
2022/01/16 09:43:22;;;;;;;25.67;9.52;;;7.00;91.90;;;;;;5011512;28;20376;-49
2022/01/16 09:45:48;;;;;;;27.58;12.70;;;7.00;91.70;;;;;;5011982;28;20022;-49
2022/01/16 09:48:18;;;;;;;25.95;10.50;;;7.00;91.60;;;;;;5010811;28;20084;-49
2022/01/16 09:50:44;;;;;;;26.25;10.07;;;7.00;91.30;;;;;;5011368;28;20119;-49
2022/01/16 09:53:10;;;;;;;18.65;9.35;;;7.00;91.40;;;;;;5009360;28;20436;-49
2022/01/16 09:55:35;;;;;;;21.13;9.38;;;7.00;91.20;;;;;;5011845;28;20234;-49
2022/01/16 09:58:01;;;;;;;28.67;10.45;;;7.00;91.30;;;;;;5011497;28;20483;-49
2022/01/16 10:00:28;;;;;;;26.38;10.68;;;7.00;91.30;;;;;;5012229;28;20033;-49
2022/01/16 10:02:54;;;;;;;13.50;5.90;;;7.00;91.00;;;;;;5010598;28;20366;-49
2022/01/16 10:05:26;;;;;;;16.48;4.90;;;7.00;91.30;;;;;;5009139;28;20029;-49
2022/01/16 10:07:54;;;;;;;12.15;4.50;;;7.00;91.20;;;;;;5007217;28;20029;-49
2022/01/16 10:10:23;;;;;;;26.40;11.00;;;7.00;91.30;;;;;;5010765;28;20373;-49
2022/01/16 10:12:51;;;;;;;22.92;10.40;;;7.00;91.00;;;;;;5010773;28;20030;-49
2022/01/16 10:15:21;;;;;;;22.00;8.20;;;7.00;91.10;;;;;;5011175;28;20057;-49
2022/01/16 10:17:51;;;;;;;11.82;5.18;;;7.00;91.30;;;;;;5012229;28;20021;-49
2022/01/16 10:20:17;;;;;;;15.23;5.93;;;7.10;91.30;;;;;;5011634;28;20088;-49
2022/01/16 10:22:44;;;;;;;6.03;3.03;;;7.10;91.30;;;;;;5007635;28;20061;-49
2022/01/16 10:25:11;;;;;;;20.35;9.15;;;7.10;91.40;;;;;;5011708;28;20030;-49
2022/01/16 10:27:39;;;;;;;16.35;5.55;;;7.10;91.30;;;;;;5011257;28;20088;-49
2022/01/16 10:30:09;;;;;;;16.13;7.60;;;7.10;91.10;;;;;;5009062;28;20045;-49
2022/01/16 10:32:41;;;;;;;13.88;7.03;;;7.10;91.10;;;;;;5005353;28;20018;-49
2022/01/16 10:35:06;;;;;;;10.57;5.13;;;7.10;91.20;;;;;;5008836;28;20459;-49
2022/01/16 10:37:32;;;;;;;12.13;6.32;;;7.10;91.40;;;;;;5006045;28;20073;-49
2022/01/16 10:39:58;;;;;;;0.60;0.60;;;7.10;91.30;;;;;;5010991;28;20489;-49
2022/01/16 10:42:24;;;;;;;9.07;4.68;;;7.10;91.00;;;;;;5010018;28;20109;-49
2022/01/16 10:45:02;;;;;;;16.15;6.13;;;7.10;91.10;;;;;;5011107;28;20452;-49
2022/01/16 10:47:51;;;;;;;3.55;3.30;;;7.10;90.90;;;;;;5009596;28;20354;-49
2022/01/16 10:50:43;;;;;;;13.35;6.35;;;7.10;90.80;;;;;;5010042;28;20407;-49
2022/01/16 10:53:16;;;;;;;4.15;3.15;;;7.20;90.80;;;;;;5004092;28;20041;-49
2022/01/16 10:55:47;;;;;;;8.43;3.42;;;7.20;90.70;;;;;;5008118;28;20117;-49
2022/01/16 10:58:14;;;;;;;18.60;8.93;;;7.20;90.80;;;;;;5009038;28;20030;-48
2022/01/16 11:00:46;;;;;;;23.73;8.75;;;7.20;90.60;;;;;;5009881;28;20484;-49
2022/01/16 11:03:13;;;;;;;21.42;8.55;;;7.20;90.70;;;;;;5007490;28;20471;-49
2022/01/16 11:05:46;;;;;;;9.55;5.65;;;7.20;90.70;;;;;;5087579;28;20423;-49
2022/01/16 11:08:18;;;;;;;10.73;4.35;;;7.20;90.70;;;;;;5091089;28;20510;-48
2022/01/16 11:10:52;;;;;;;3.65;2.95;;;7.20;90.70;;;;;;5091812;28;20058;-48
2022/01/16 11:13:24;;;;;;;8.90;4.20;;;7.30;90.80;;;;;;5087030;28;20372;-50
2022/01/16 11:15:53;;;;;;;10.10;6.32;;;7.30;90.60;;;;;;5087503;28;20399;-49
2022/01/16 11:18:20;;;;;;;5.57;4.40;;;7.30;90.90;;;;;;5091696;28;20024;-49
2022/01/16 11:21:08;;;;;;;14.13;6.13;;;7.30;90.90;;;;;;5084985;28;20043;-49
2022/01/16 11:26:21;;;;;;;10.25;5.43;;;7.30;90.90;;;;;;5091385;28;20035;-48
2022/01/16 11:28:48;;;;;;;10.68;3.60;;;7.30;90.90;;;;;;5090470;28;20032;-49
2022/01/16 11:31:15;;;;;;;8.32;4.43;;;7.30;90.80;;;;;;5086189;28;20039;-49
2022/01/16 11:33:41;;;;;;;11.35;5.60;;;7.30;91.00;;;;;;5089038;28;20039;-49
2022/01/16 11:36:13;;;;;;;9.00;4.82;;;7.30;91.10;;;;;;5088986;28;20345;-49
2022/01/16 11:38:49;;;;;;;10.07;5.45;;;7.30;91.10;;;;;;5087785;28;20103;-48
2022/01/16 11:41:39;;;;;;;5.25;3.38;;;7.30;91.20;;;;;;5089683;28;20035;-49
2022/01/16 11:44:21;;;;;;;17.20;7.30;;;7.30;91.30;;;;;;5084653;28;20033;-49
2022/01/16 11:46:50;;;;;;;6.55;3.70;;;7.30;91.30;;;;;;5089160;28;20457;-49
2022/01/16 11:49:19;;;;;;;10.25;5.10;;;7.30;91.50;;;;;;5090619;28;20032;-49
2022/01/16 11:51:51;;;;;;;3.50;3.22;;;7.30;91.50;;;;;;5089965;28;20112;-50
2022/01/16 11:54:28;;;;;;;9.70;5.03;;;7.30;91.70;;;;;;5084937;28;20051;-49
2022/01/16 11:56:53;;;;;;;9.20;4.30;;;7.30;91.50;;;;;;5086525;28;20024;-49
2022/01/16 11:59:35;;;;;;;9.68;5.63;;;7.40;91.50;;;;;;5092507;28;20017;-49
2022/01/16 12:02:03;;;;;;;17.23;6.93;;;7.30;91.60;;;;;;5090121;28;20020;-49
2022/01/16 12:04:29;;;;;;;17.67;8.00;;;7.40;91.60;;;;;;5085946;28;20028;-49
2022/01/16 12:07:13;;;;;;;19.98;8.25;;;7.40;91.80;;;;;;5088575;28;20036;-49
2022/01/16 12:09:48;;;;;;;15.90;5.43;;;7.40;91.90;;;;;;5086784;28;20032;-49
2022/01/16 12:12:14;;;;;;;8.95;4.47;;;7.40;91.80;;;;;;5089035;28;20089;-48
2022/01/16 12:15:08;;;;;;;8.43;4.13;;;7.40;91.90;;;;;;5088902;28;20036;-49
2022/01/16 12:22:52;;;;;;;20.77;8.15;;;7.40;91.80;;;;;;5072543;28;20464;-49
2022/01/16 12:25:42;;;;;;;15.30;4.78;;;7.40;91.80;;;;;;5068401;28;20120;-49
2022/01/16 12:28:08;;;;;;;;;;;7.40;92.00;;;;;;5074983;28;20028;-49
2022/01/16 12:30:51;;;;;;;22.38;6.88;;;7.50;92.00;;;;;;5075304;28;19910;-49
2022/01/16 12:33:24;;;;;;;25.00;7.93;;;7.50;92.00;;;;;;5071392;28;20086;-49
2022/01/16 12:35:50;;;;;;;20.60;7.75;;;7.40;91.60;;;;;;5070885;28;20060;-49
2022/01/16 12:38:28;;;;;;;15.40;6.00;;;7.50;91.80;;;;;;5073833;28;20082;-49
2022/01/16 12:41:02;;;;;;;15.75;5.72;;;7.40;91.80;;;;;;5074736;28;20056;-49
2022/01/16 12:43:32;;;;;;;14.85;5.88;;;7.50;92.00;;;;;;5069297;28;20377;-49
2022/01/16 12:46:02;;;;;;;2.88;1.30;;;7.50;91.90;;;;;;5076098;28;20044;-49
2022/01/16 12:48:29;;;;;;;10.35;5.85;;;7.50;91.90;;;;;;5076960;28;20027;-49
2022/01/16 12:51:03;;;;;;;15.82;6.93;;;7.50;92.00;;;;;;5073510;28;20074;-49
2022/01/16 12:53:45;;;;;;;19.92;7.93;;;7.50;91.90;;;;;;5069658;28;20028;-48
2022/01/16 12:56:27;;;;;;;18.15;9.00;;;7.50;92.00;;;;;;5073596;28;20175;-50
2022/01/16 12:59:21;;;;;;;10.48;5.68;;;7.50;92.00;;;;;;5079195;28;20063;-49
2022/01/16 13:01:51;;;;;;;24.63;6.78;;;7.50;92.40;;;;;;5066238;28;20033;-49
2022/01/16 13:04:32;;;;;;;14.80;6.30;;;7.50;91.70;;;;;;5073499;28;20086;-49
2022/01/16 13:07:01;;;;;;;;;;;7.50;91.60;;;;;;5072059;28;20064;-49
2022/01/16 13:09:27;;;;;;;12.85;5.43;;;7.50;91.20;;;;;;5070055;28;19912;-49
2022/01/16 13:11:56;;;;;;;17.02;7.47;;;7.50;91.10;;;;;;5068715;28;20107;-49
2022/01/16 13:14:33;;;;;;;16.58;8.30;;;7.50;91.00;;;;;;5071901;28;20055;-49
2022/01/16 13:17:11;;;;;;;12.02;6.43;;;7.50;90.90;;;;;;5072214;28;20024;-49
2022/01/16 13:19:56;;;;;;;21.35;8.32;;;7.50;91.60;;;;;;5072024;28;20101;-49
2022/01/16 13:22:27;;;;;;;17.35;6.68;;;7.50;91.70;;;;;;5078012;28;20020;-49
2022/01/16 13:25:06;;;;;;;15.93;6.25;;;7.50;91.90;;;;;;5069771;28;20033;-49
2022/01/16 13:27:35;;;;;;;14.63;5.93;;;7.50;90.90;;;;;;5067958;28;20396;-49
2022/01/16 13:30:26;;;;;;;10.25;4.85;;;7.50;91.00;;;;;;5071392;28;20025;-49
2022/01/16 13:32:52;;;;;;;;;;;7.50;90.90;;;;;;5068497;28;20464;-49
2022/01/16 13:35:17;;;;;;;9.18;4.18;;;7.50;90.90;;;;;;5073194;28;19915;-49